Terminal Aerodrome Forecast
Issued by NWS

Home | Current Version | Previous Version | Text Only | Print | Product List | Glossary On
Versions: 1 2 3 4 5 6 7 8 9 10 11 12 13 14 15
000
FTUS45 KREV 290500
TAFMMH
TAF
KMMH 290520Z 2906/3006 VRB04KT P6SM SCT060 BKN200
     FM291900 14007KT P6SM SCT060 BKN120
     FM300200 VRB03KT P6SM SCT060 BKN120
      AMD NOT SKED 2906/2914=

USA.gov is the U.S. government's official web portal to all federal, state and local government web resources and services.